sensor_id;sensor_type;location;lat;lon;timestamp;P1;durP1;ratioP1;P2;durP2;ratioP2
32214;SDS011;18708;53.124;23.190;2023-05-24T00:01:42;4.32;;;3.47;;
32214;SDS011;18708;53.124;23.190;2023-05-24T00:04:08;5.13;;;4.50;;
32214;SDS011;18708;53.124;23.190;2023-05-24T00:06:34;5.65;;;3.85;;
32214;SDS011;18708;53.124;23.190;2023-05-24T00:09:01;4.80;;;2.83;;
32214;SDS011;18708;53.124;23.190;2023-05-24T00:11:27;7.55;;;3.83;;
32214;SDS011;18708;53.124;23.190;2023-05-24T00:13:53;4.43;;;2.85;;
32214;SDS011;18708;53.124;23.190;2023-05-24T00:16:19;4.82;;;3.67;;
32214;SDS011;18708;53.124;23.190;2023-05-24T00:18:44;5.65;;;3.30;;
32214;SDS011;18708;53.124;23.190;2023-05-24T00:21:12;4.65;;;3.20;;
32214;SDS011;18708;53.124;23.190;2023-05-24T00:23:38;5.85;;;3.67;;
32214;SDS011;18708;53.124;23.190;2023-05-24T00:26:06;4.32;;;3.42;;
32214;SDS011;18708;53.124;23.190;2023-05-24T00:28:32;4.43;;;3.33;;
32214;SDS011;18708;53.124;23.190;2023-05-24T00:30:59;4.30;;;3.30;;
32214;SDS011;18708;53.124;23.190;2023-05-24T00:33:25;4.40;;;3.30;;
32214;SDS011;18708;53.124;23.190;2023-05-24T00:35:52;5.78;;;3.78;;
32214;SDS011;18708;53.124;23.190;2023-05-24T00:38:26;4.13;;;3.45;;
32214;SDS011;18708;53.124;23.190;2023-05-24T00:40:54;3.80;;;3.03;;
32214;SDS011;18708;53.124;23.190;2023-05-24T00:43:20;3.95;;;3.35;;
32214;SDS011;18708;53.124;23.190;2023-05-24T00:45:47;3.78;;;3.38;;
32214;SDS011;18708;53.124;23.190;2023-05-24T00:48:12;4.55;;;3.03;;
32214;SDS011;18708;53.124;23.190;2023-05-24T00:50:38;4.70;;;3.53;;
32214;SDS011;18708;53.124;23.190;2023-05-24T00:53:05;5.35;;;3.35;;
32214;SDS011;18708;53.124;23.190;2023-05-24T00:55:32;4.30;;;3.13;;
32214;SDS011;18708;53.124;23.190;2023-05-24T00:57:59;3.38;;;3.08;;
32214;SDS011;18708;53.124;23.190;2023-05-24T01:00:26;4.18;;;3.35;;
32214;SDS011;18708;53.124;23.190;2023-05-24T01:02:53;6.15;;;3.60;;
32214;SDS011;18708;53.124;23.190;2023-05-24T01:05:19;5.72;;;3.55;;
32214;SDS011;18708;53.124;23.190;2023-05-24T01:07:53;6.97;;;3.65;;
32214;SDS011;18708;53.124;23.190;2023-05-24T01:16:34;5.50;;;3.50;;
32214;SDS011;18708;53.124;23.190;2023-05-24T01:19:22;4.83;;;3.50;;
32214;SDS011;18708;53.124;23.190;2023-05-24T01:27:58;3.22;;;2.92;;
32214;SDS011;18708;53.124;23.190;2023-05-24T01:30:27;4.32;;;3.30;;
32214;SDS011;18708;53.124;23.190;2023-05-24T01:32:54;5.32;;;3.20;;
32214;SDS011;18708;53.124;23.190;2023-05-24T01:35:19;5.75;;;3.03;;
32214;SDS011;18708;53.124;23.190;2023-05-24T01:37:45;3.10;;;2.65;;
32214;SDS011;18708;53.124;23.190;2023-05-24T01:40:11;4.07;;;3.08;;
32214;SDS011;18708;53.124;23.190;2023-05-24T01:42:44;4.00;;;2.70;;
32214;SDS011;18708;53.124;23.190;2023-05-24T01:45:52;3.30;;;3.00;;
32214;SDS011;18708;53.124;23.190;2023-05-24T01:48:36;4.30;;;3.00;;
32214;SDS011;18708;53.124;23.190;2023-05-24T01:51:11;2.95;;;2.65;;
32214;SDS011;18708;53.124;23.190;2023-05-24T01:53:43;5.25;;;3.38;;
32214;SDS011;18708;53.124;23.190;2023-05-24T01:56:11;4.18;;;2.95;;
32214;SDS011;18708;53.124;23.190;2023-05-24T01:58:39;4.35;;;3.50;;
32214;SDS011;18708;53.124;23.190;2023-05-24T02:01:07;5.28;;;3.03;;
32214;SDS011;18708;53.124;23.190;2023-05-24T02:03:37;3.97;;;2.85;;
32214;SDS011;18708;53.124;23.190;2023-05-24T02:06:03;3.75;;;3.10;;
32214;SDS011;18708;53.124;23.190;2023-05-24T02:08:29;3.30;;;2.90;;
32214;SDS011;18708;53.124;23.190;2023-05-24T02:10:54;4.07;;;2.90;;
32214;SDS011;18708;53.124;23.190;2023-05-24T02:13:20;3.88;;;3.00;;
32214;SDS011;18708;53.124;23.190;2023-05-24T02:15:46;3.47;;;3.00;;
32214;SDS011;18708;53.124;23.190;2023-05-24T02:18:12;3.78;;;3.05;;
32214;SDS011;18708;53.124;23.190;2023-05-24T02:20:38;6.00;;;3.65;;
32214;SDS011;18708;53.124;23.190;2023-05-24T02:23:04;4.05;;;3.42;;
32214;SDS011;18708;53.124;23.190;2023-05-24T02:25:30;5.05;;;4.00;;
32214;SDS011;18708;53.124;23.190;2023-05-24T02:27:58;5.05;;;3.33;;
32214;SDS011;18708;53.124;23.190;2023-05-24T02:30:26;6.90;;;4.13;;
32214;SDS011;18708;53.124;23.190;2023-05-24T02:32:52;3.38;;;3.05;;
32214;SDS011;18708;53.124;23.190;2023-05-24T02:35:18;4.45;;;3.10;;
32214;SDS011;18708;53.124;23.190;2023-05-24T02:37:44;4.00;;;3.50;;
32214;SDS011;18708;53.124;23.190;2023-05-24T02:40:10;4.78;;;3.35;;
32214;SDS011;18708;53.124;23.190;2023-05-24T02:42:36;6.05;;;4.30;;
32214;SDS011;18708;53.124;23.190;2023-05-24T02:45:02;5.97;;;3.85;;
32214;SDS011;18708;53.124;23.190;2023-05-24T02:47:28;6.00;;;4.13;;
32214;SDS011;18708;53.124;23.190;2023-05-24T02:49:54;3.72;;;3.10;;
32214;SDS011;18708;53.124;23.190;2023-05-24T02:52:20;3.75;;;3.35;;
32214;SDS011;18708;53.124;23.190;2023-05-24T02:54:47;4.30;;;3.40;;
32214;SDS011;18708;53.124;23.190;2023-05-24T02:57:13;5.90;;;3.75;;
32214;SDS011;18708;53.124;23.190;2023-05-24T02:59:39;6.05;;;3.17;;
32214;SDS011;18708;53.124;23.190;2023-05-24T03:02:07;4.20;;;3.13;;
32214;SDS011;18708;53.124;23.190;2023-05-24T03:04:33;3.95;;;3.10;;
32214;SDS011;18708;53.124;23.190;2023-05-24T03:06:59;6.30;;;3.40;;
32214;SDS011;18708;53.124;23.190;2023-05-24T03:09:27;4.38;;;3.10;;
32214;SDS011;18708;53.124;23.190;2023-05-24T03:11:53;3.67;;;3.30;;
32214;SDS011;18708;53.124;23.190;2023-05-24T03:14:18;5.15;;;3.30;;
32214;SDS011;18708;53.124;23.190;2023-05-24T03:16:47;5.32;;;3.60;;
32214;SDS011;18708;53.124;23.190;2023-05-24T03:19:13;4.10;;;3.33;;
32214;SDS011;18708;53.124;23.190;2023-05-24T03:21:39;3.78;;;3.22;;
32214;SDS011;18708;53.124;23.190;2023-05-24T03:24:04;6.80;;;3.88;;
32214;SDS011;18708;53.124;23.190;2023-05-24T03:26:30;9.02;;;4.60;;
32214;SDS011;18708;53.124;23.190;2023-05-24T03:28:56;7.43;;;3.97;;
32214;SDS011;18708;53.124;23.190;2023-05-24T03:31:22;4.43;;;3.58;;
32214;SDS011;18708;53.124;23.190;2023-05-24T03:33:50;5.93;;;4.63;;
32214;SDS011;18708;53.124;23.190;2023-05-24T03:36:16;5.38;;;4.60;;
32214;SDS011;18708;53.124;23.190;2023-05-24T03:38:45;6.93;;;4.93;;
32214;SDS011;18708;53.124;23.190;2023-05-24T03:41:10;6.68;;;4.63;;
32214;SDS011;18708;53.124;23.190;2023-05-24T03:43:36;10.13;;;4.95;;
32214;SDS011;18708;53.124;23.190;2023-05-24T03:46:02;7.07;;;4.53;;
32214;SDS011;18708;53.124;23.190;2023-05-24T03:48:27;9.55;;;5.57;;
32214;SDS011;18708;53.124;23.190;2023-05-24T03:50:53;5.82;;;4.55;;
32214;SDS011;18708;53.124;23.190;2023-05-24T03:53:19;5.85;;;4.60;;
32214;SDS011;18708;53.124;23.190;2023-05-24T03:55:45;8.93;;;4.90;;
32214;SDS011;18708;53.124;23.190;2023-05-24T03:58:11;8.73;;;4.70;;
32214;SDS011;18708;53.124;23.190;2023-05-24T04:00:37;5.50;;;4.03;;
32214;SDS011;18708;53.124;23.190;2023-05-24T04:03:03;8.15;;;4.30;;
32214;SDS011;18708;53.124;23.190;2023-05-24T04:05:30;4.82;;;4.30;;
32214;SDS011;18708;53.124;23.190;2023-05-24T04:07:57;6.88;;;4.45;;
32214;SDS011;18708;53.124;23.190;2023-05-24T04:10:23;6.57;;;4.32;;
32214;SDS011;18708;53.124;23.190;2023-05-24T04:12:49;6.38;;;4.05;;
32214;SDS011;18708;53.124;23.190;2023-05-24T04:15:14;7.68;;;4.35;;
32214;SDS011;18708;53.124;23.190;2023-05-24T04:17:40;4.65;;;4.05;;
32214;SDS011;18708;53.124;23.190;2023-05-24T04:20:07;8.13;;;4.43;;
32214;SDS011;18708;53.124;23.190;2023-05-24T04:22:34;8.05;;;4.10;;
32214;SDS011;18708;53.124;23.190;2023-05-24T04:25:00;5.60;;;4.47;;
32214;SDS011;18708;53.124;23.190;2023-05-24T04:27:29;5.45;;;4.03;;
32214;SDS011;18708;53.124;23.190;2023-05-24T04:29:55;6.78;;;4.13;;
32214;SDS011;18708;53.124;23.190;2023-05-24T04:32:21;8.52;;;4.55;;
32214;SDS011;18708;53.124;23.190;2023-05-24T04:34:47;6.95;;;4.40;;
32214;SDS011;18708;53.124;23.190;2023-05-24T04:37:14;6.25;;;3.72;;
32214;SDS011;18708;53.124;23.190;2023-05-24T04:39:41;6.93;;;4.18;;
32214;SDS011;18708;53.124;23.190;2023-05-24T04:42:08;6.15;;;4.15;;
32214;SDS011;18708;53.124;23.190;2023-05-24T04:44:34;5.32;;;3.85;;
32214;SDS011;18708;53.124;23.190;2023-05-24T04:46:59;5.13;;;4.07;;
32214;SDS011;18708;53.124;23.190;2023-05-24T04:49:27;7.22;;;4.25;;
32214;SDS011;18708;53.124;23.190;2023-05-24T04:51:53;4.93;;;3.60;;
32214;SDS011;18708;53.124;23.190;2023-05-24T04:54:20;5.78;;;3.83;;
32214;SDS011;18708;53.124;23.190;2023-05-24T04:56:45;7.05;;;4.43;;
32214;SDS011;18708;53.124;23.190;2023-05-24T04:59:11;6.28;;;4.07;;
32214;SDS011;18708;53.124;23.190;2023-05-24T05:01:37;6.13;;;3.83;;
32214;SDS011;18708;53.124;23.190;2023-05-24T05:04:03;8.18;;;4.30;;
32214;SDS011;18708;53.124;23.190;2023-05-24T05:06:29;6.78;;;4.43;;
32214;SDS011;18708;53.124;23.190;2023-05-24T05:08:55;14.80;;;4.35;;
32214;SDS011;18708;53.124;23.190;2023-05-24T05:11:21;6.43;;;4.30;;
32214;SDS011;18708;53.124;23.190;2023-05-24T05:13:47;7.78;;;4.63;;
32214;SDS011;18708;53.124;23.190;2023-05-24T05:16:12;6.50;;;4.32;;
32214;SDS011;18708;53.124;23.190;2023-05-24T05:18:38;5.60;;;4.03;;
32214;SDS011;18708;53.124;23.190;2023-05-24T05:21:05;7.85;;;4.53;;
32214;SDS011;18708;53.124;23.190;2023-05-24T05:23:31;9.10;;;4.35;;
32214;SDS011;18708;53.124;23.190;2023-05-24T05:25:56;6.95;;;4.07;;
32214;SDS011;18708;53.124;23.190;2023-05-24T05:28:22;6.88;;;4.20;;
32214;SDS011;18708;53.124;23.190;2023-05-24T05:30:48;5.82;;;4.22;;
32214;SDS011;18708;53.124;23.190;2023-05-24T05:33:14;7.70;;;4.47;;
32214;SDS011;18708;53.124;23.190;2023-05-24T05:35:39;11.07;;;4.13;;
32214;SDS011;18708;53.124;23.190;2023-05-24T05:38:05;8.05;;;4.32;;
32214;SDS011;18708;53.124;23.190;2023-05-24T05:40:33;8.45;;;4.03;;
32214;SDS011;18708;53.124;23.190;2023-05-24T05:42:59;6.97;;;4.55;;
32214;SDS011;18708;53.124;23.190;2023-05-24T05:45:24;7.90;;;4.30;;
32214;SDS011;18708;53.124;23.190;2023-05-24T05:47:50;6.70;;;4.43;;
32214;SDS011;18708;53.124;23.190;2023-05-24T05:50:18;4.65;;;3.97;;
32214;SDS011;18708;53.124;23.190;2023-05-24T05:52:44;10.43;;;4.20;;
32214;SDS011;18708;53.124;23.190;2023-05-24T05:55:10;6.75;;;4.03;;
32214;SDS011;18708;53.124;23.190;2023-05-24T05:57:37;5.40;;;4.13;;
32214;SDS011;18708;53.124;23.190;2023-05-24T06:00:03;5.53;;;4.28;;
32214;SDS011;18708;53.124;23.190;2023-05-24T06:02:29;9.07;;;4.25;;
32214;SDS011;18708;53.124;23.190;2023-05-24T06:04:55;9.15;;;4.20;;
32214;SDS011;18708;53.124;23.190;2023-05-24T06:07:21;10.18;;;4.50;;
32214;SDS011;18708;53.124;23.190;2023-05-24T06:09:46;5.75;;;3.80;;
32214;SDS011;18708;53.124;23.190;2023-05-24T06:12:12;4.75;;;3.42;;
32214;SDS011;18708;53.124;23.190;2023-05-24T06:14:38;5.70;;;4.30;;
32214;SDS011;18708;53.124;23.190;2023-05-24T06:17:06;6.03;;;4.07;;
32214;SDS011;18708;53.124;23.190;2023-05-24T06:19:31;6.40;;;3.83;;
32214;SDS011;18708;53.124;23.190;2023-05-24T06:21:58;6.78;;;3.80;;
32214;SDS011;18708;53.124;23.190;2023-05-24T06:24:23;5.18;;;3.60;;
32214;SDS011;18708;53.124;23.190;2023-05-24T06:26:50;5.78;;;3.50;;
32214;SDS011;18708;53.124;23.190;2023-05-24T06:29:16;6.57;;;3.67;;
32214;SDS011;18708;53.124;23.190;2023-05-24T06:31:49;4.75;;;3.67;;
32214;SDS011;18708;53.124;23.190;2023-05-24T06:34:15;7.35;;;4.53;;
32214;SDS011;18708;53.124;23.190;2023-05-24T06:36:45;7.55;;;4.05;;
32214;SDS011;18708;53.124;23.190;2023-05-24T06:39:12;9.35;;;4.32;;
32214;SDS011;18708;53.124;23.190;2023-05-24T06:41:39;7.03;;;4.07;;
32214;SDS011;18708;53.124;23.190;2023-05-24T06:44:07;8.18;;;3.78;;
32214;SDS011;18708;53.124;23.190;2023-05-24T06:46:33;8.32;;;3.50;;
32214;SDS011;18708;53.124;23.190;2023-05-24T06:48:59;10.77;;;4.10;;
32214;SDS011;18708;53.124;23.190;2023-05-24T06:51:24;6.40;;;3.53;;
32214;SDS011;18708;53.124;23.190;2023-05-24T06:53:50;7.28;;;3.60;;
32214;SDS011;18708;53.124;23.190;2023-05-24T06:56:17;3.97;;;3.13;;
32214;SDS011;18708;53.124;23.190;2023-05-24T06:58:42;5.57;;;3.22;;
32214;SDS011;18708;53.124;23.190;2023-05-24T07:01:08;6.43;;;3.17;;
32214;SDS011;18708;53.124;23.190;2023-05-24T07:03:34;10.55;;;4.20;;
32214;SDS011;18708;53.124;23.190;2023-05-24T07:06:01;5.35;;;3.33;;
32214;SDS011;18708;53.124;23.190;2023-05-24T07:08:27;3.67;;;2.90;;
32214;SDS011;18708;53.124;23.190;2023-05-24T07:10:53;3.78;;;2.90;;
32214;SDS011;18708;53.124;23.190;2023-05-24T07:13:20;3.85;;;3.00;;
32214;SDS011;18708;53.124;23.190;2023-05-24T07:15:46;5.30;;;3.05;;
32214;SDS011;18708;53.124;23.190;2023-05-24T07:18:12;6.60;;;3.28;;
32214;SDS011;18708;53.124;23.190;2023-05-24T07:20:38;9.05;;;4.05;;
32214;SDS011;18708;53.124;23.190;2023-05-24T07:23:04;8.43;;;3.88;;
32214;SDS011;18708;53.124;23.190;2023-05-24T07:25:31;7.75;;;3.45;;
32214;SDS011;18708;53.124;23.190;2023-05-24T07:27:57;5.40;;;2.97;;
32214;SDS011;18708;53.124;23.190;2023-05-24T07:30:24;6.70;;;3.15;;
32214;SDS011;18708;53.124;23.190;2023-05-24T07:32:49;4.93;;;2.65;;
32214;SDS011;18708;53.124;23.190;2023-05-24T07:35:15;4.00;;;2.80;;
32214;SDS011;18708;53.124;23.190;2023-05-24T07:37:41;6.03;;;2.88;;
32214;SDS011;18708;53.124;23.190;2023-05-24T07:40:07;11.10;;;3.00;;
32214;SDS011;18708;53.124;23.190;2023-05-24T07:42:36;4.68;;;2.65;;
32214;SDS011;18708;53.124;23.190;2023-05-24T07:45:03;5.22;;;2.65;;
32214;SDS011;18708;53.124;23.190;2023-05-24T07:47:35;3.63;;;2.47;;
32214;SDS011;18708;53.124;23.190;2023-05-24T07:50:01;8.18;;;2.95;;
32214;SDS011;18708;53.124;23.190;2023-05-24T07:52:27;6.68;;;2.72;;
32214;SDS011;18708;53.124;23.190;2023-05-24T07:54:53;4.95;;;2.10;;
32214;SDS011;18708;53.124;23.190;2023-05-24T07:57:19;4.25;;;2.30;;
32214;SDS011;18708;53.124;23.190;2023-05-24T07:59:45;5.90;;;3.08;;
32214;SDS011;18708;53.124;23.190;2023-05-24T08:02:11;3.65;;;2.20;;
32214;SDS011;18708;53.124;23.190;2023-05-24T08:04:40;3.97;;;2.60;;
32214;SDS011;18708;53.124;23.190;2023-05-24T08:07:07;5.22;;;2.40;;
32214;SDS011;18708;53.124;23.190;2023-05-24T08:09:33;4.35;;;2.22;;
32214;SDS011;18708;53.124;23.190;2023-05-24T08:12:05;4.20;;;2.50;;
32214;SDS011;18708;53.124;23.190;2023-05-24T08:14:31;2.65;;;1.95;;
32214;SDS011;18708;53.124;23.190;2023-05-24T08:16:58;2.55;;;2.28;;
32214;SDS011;18708;53.124;23.190;2023-05-24T08:19:27;2.55;;;2.35;;
32214;SDS011;18708;53.124;23.190;2023-05-24T08:21:59;5.10;;;2.80;;
32214;SDS011;18708;53.124;23.190;2023-05-24T08:24:28;5.57;;;2.70;;
32214;SDS011;18708;53.124;23.190;2023-05-24T08:26:55;4.68;;;2.53;;
32214;SDS011;18708;53.124;23.190;2023-05-24T08:29:21;4.15;;;2.70;;
32214;SDS011;18708;53.124;23.190;2023-05-24T08:31:46;4.40;;;2.28;;
32214;SDS011;18708;53.124;23.190;2023-05-24T08:34:12;5.22;;;2.38;;
32214;SDS011;18708;53.124;23.190;2023-05-24T08:36:38;7.50;;;2.25;;
32214;SDS011;18708;53.124;23.190;2023-05-24T08:39:04;2.88;;;2.35;;
32214;SDS011;18708;53.124;23.190;2023-05-24T08:41:30;5.18;;;2.40;;
32214;SDS011;18708;53.124;23.190;2023-05-24T08:44:01;5.00;;;2.38;;
32214;SDS011;18708;53.124;23.190;2023-05-24T08:46:29;7.15;;;2.30;;
32214;SDS011;18708;53.124;23.190;2023-05-24T08:48:58;4.13;;;2.50;;
32214;SDS011;18708;53.124;23.190;2023-05-24T08:51:28;4.43;;;2.17;;
32214;SDS011;18708;53.124;23.190;2023-05-24T08:53:55;4.35;;;2.63;;
32214;SDS011;18708;53.124;23.190;2023-05-24T08:56:25;4.10;;;2.28;;
32214;SDS011;18708;53.124;23.190;2023-05-24T08:58:52;3.45;;;2.20;;
32214;SDS011;18708;53.124;23.190;2023-05-24T09:01:19;2.78;;;2.10;;
32214;SDS011;18708;53.124;23.190;2023-05-24T09:03:45;4.15;;;2.25;;
32214;SDS011;18708;53.124;23.190;2023-05-24T09:06:12;2.80;;;2.17;;
32214;SDS011;18708;53.124;23.190;2023-05-24T09:08:41;2.85;;;1.95;;
32214;SDS011;18708;53.124;23.190;2023-05-24T09:11:07;7.32;;;2.10;;
32214;SDS011;18708;53.124;23.190;2023-05-24T09:13:34;3.05;;;2.30;;
32214;SDS011;18708;53.124;23.190;2023-05-24T09:16:00;2.92;;;1.92;;
32214;SDS011;18708;53.124;23.190;2023-05-24T09:18:26;3.20;;;2.25;;
32214;SDS011;18708;53.124;23.190;2023-05-24T09:20:54;3.33;;;2.03;;
32214;SDS011;18708;53.124;23.190;2023-05-24T09:23:20;3.10;;;2.22;;
32214;SDS011;18708;53.124;23.190;2023-05-24T09:25:48;2.97;;;2.00;;
32214;SDS011;18708;53.124;23.190;2023-05-24T09:28:15;2.60;;;2.10;;
32214;SDS011;18708;53.124;23.190;2023-05-24T09:30:42;3.67;;;2.17;;
32214;SDS011;18708;53.124;23.190;2023-05-24T09:33:29;3.10;;;2.30;;
32214;SDS011;18708;53.124;23.190;2023-05-24T09:35:59;2.47;;;2.05;;
32214;SDS011;18708;53.124;23.190;2023-05-24T09:38:26;4.20;;;2.03;;
32214;SDS011;18708;53.124;23.190;2023-05-24T09:43:32;2.22;;;1.90;;
32214;SDS011;18708;53.124;23.190;2023-05-24T09:46:02;4.32;;;1.80;;
32214;SDS011;18708;53.124;23.190;2023-05-24T09:48:28;4.53;;;2.35;;
32214;SDS011;18708;53.124;23.190;2023-05-24T09:51:05;3.70;;;2.22;;
32214;SDS011;18708;53.124;23.190;2023-05-24T09:53:34;5.60;;;2.22;;
32214;SDS011;18708;53.124;23.190;2023-05-24T09:56:04;3.72;;;2.05;;
32214;SDS011;18708;53.124;23.190;2023-05-24T09:58:35;5.18;;;2.03;;
32214;SDS011;18708;53.124;23.190;2023-05-24T10:01:04;4.97;;;2.10;;
32214;SDS011;18708;53.124;23.190;2023-05-24T10:03:35;3.78;;;2.10;;
32214;SDS011;18708;53.124;23.190;2023-05-24T10:06:02;4.07;;;1.95;;
32214;SDS011;18708;53.124;23.190;2023-05-24T10:08:32;2.10;;;1.90;;
32214;SDS011;18708;53.124;23.190;2023-05-24T10:11:00;2.03;;;1.83;;
32214;SDS011;18708;53.124;23.190;2023-05-24T10:13:28;3.40;;;2.50;;
32214;SDS011;18708;53.124;23.190;2023-05-24T10:15:55;7.25;;;2.22;;
32214;SDS011;18708;53.124;23.190;2023-05-24T10:18:21;2.97;;;1.92;;
32214;SDS011;18708;53.124;23.190;2023-05-24T10:20:47;2.45;;;1.50;;
32214;SDS011;18708;53.124;23.190;2023-05-24T10:23:18;2.42;;;1.83;;
32214;SDS011;18708;53.124;23.190;2023-05-24T10:25:49;2.58;;;1.70;;
32214;SDS011;18708;53.124;23.190;2023-05-24T10:28:17;5.95;;;2.00;;
32214;SDS011;18708;53.124;23.190;2023-05-24T10:33:27;6.97;;;2.00;;
32214;SDS011;18708;53.124;23.190;2023-05-24T10:35:55;5.32;;;2.08;;
32214;SDS011;18708;53.124;23.190;2023-05-24T10:38:21;4.22;;;2.05;;
32214;SDS011;18708;53.124;23.190;2023-05-24T10:40:47;5.18;;;2.20;;
32214;SDS011;18708;53.124;23.190;2023-05-24T10:43:13;2.03;;;1.83;;
32214;SDS011;18708;53.124;23.190;2023-05-24T10:45:41;2.90;;;1.83;;
32214;SDS011;18708;53.124;23.190;2023-05-24T10:50:37;2.75;;;1.90;;
32214;SDS011;18708;53.124;23.190;2023-05-24T10:53:16;3.78;;;2.30;;
32214;SDS011;18708;53.124;23.190;2023-05-24T10:56:02;5.25;;;2.25;;
32214;SDS011;18708;53.124;23.190;2023-05-24T11:00:58;2.47;;;1.95;;
32214;SDS011;18708;53.124;23.190;2023-05-24T11:03:23;4.72;;;2.97;;
32214;SDS011;18708;53.124;23.190;2023-05-24T11:05:53;4.05;;;2.20;;
32214;SDS011;18708;53.124;23.190;2023-05-24T11:11:01;2.65;;;2.00;;
32214;SDS011;18708;53.124;23.190;2023-05-24T11:13:28;3.88;;;1.80;;
32214;SDS011;18708;53.124;23.190;2023-05-24T11:15:55;3.90;;;2.25;;
32214;SDS011;18708;53.124;23.190;2023-05-24T11:18:21;3.65;;;2.00;;
32214;SDS011;18708;53.124;23.190;2023-05-24T11:20:47;2.58;;;1.77;;
32214;SDS011;18708;53.124;23.190;2023-05-24T11:23:16;2.92;;;2.13;;
32214;SDS011;18708;53.124;23.190;2023-05-24T11:25:46;4.43;;;1.90;;
32214;SDS011;18708;53.124;23.190;2023-05-24T11:28:12;2.88;;;2.17;;
32214;SDS011;18708;53.124;23.190;2023-05-24T11:30:45;4.72;;;2.10;;
32214;SDS011;18708;53.124;23.190;2023-05-24T11:35:47;4.38;;;2.63;;
32214;SDS011;18708;53.124;23.190;2023-05-24T11:38:15;3.13;;;2.30;;
32214;SDS011;18708;53.124;23.190;2023-05-24T11:40:42;4.40;;;2.40;;
32214;SDS011;18708;53.124;23.190;2023-05-24T11:43:18;2.55;;;2.10;;
32214;SDS011;18708;53.124;23.190;2023-05-24T11:45:49;2.65;;;2.17;;
32214;SDS011;18708;53.124;23.190;2023-05-24T11:48:15;4.72;;;2.13;;
32214;SDS011;18708;53.124;23.190;2023-05-24T11:50:43;4.13;;;1.90;;
32214;SDS011;18708;53.124;23.190;2023-05-24T11:53:17;2.97;;;2.03;;
32214;SDS011;18708;53.124;23.190;2023-05-24T11:55:44;4.88;;;2.80;;
32214;SDS011;18708;53.124;23.190;2023-05-24T12:00:50;4.28;;;2.10;;
32214;SDS011;18708;53.124;23.190;2023-05-24T12:03:16;3.15;;;2.47;;
32214;SDS011;18708;53.124;23.190;2023-05-24T12:05:42;5.22;;;2.30;;
32214;SDS011;18708;53.124;23.190;2023-05-24T12:08:09;3.88;;;2.10;;
32214;SDS011;18708;53.124;23.190;2023-05-24T12:10:42;8.52;;;2.95;;
32214;SDS011;18708;53.124;23.190;2023-05-24T12:13:19;3.22;;;2.38;;
32214;SDS011;18708;53.124;23.190;2023-05-24T12:15:48;4.50;;;2.10;;
32214;SDS011;18708;53.124;23.190;2023-05-24T12:18:18;3.72;;;2.00;;
32214;SDS011;18708;53.124;23.190;2023-05-24T12:20:45;4.43;;;2.20;;
32214;SDS011;18708;53.124;23.190;2023-05-24T12:23:15;4.22;;;2.17;;
32214;SDS011;18708;53.124;23.190;2023-05-24T12:25:41;3.38;;;2.22;;
32214;SDS011;18708;53.124;23.190;2023-05-24T12:28:08;3.83;;;2.20;;
32214;SDS011;18708;53.124;23.190;2023-05-24T12:30:35;4.65;;;2.20;;
32214;SDS011;18708;53.124;23.190;2023-05-24T12:33:02;3.53;;;2.30;;
32214;SDS011;18708;53.124;23.190;2023-05-24T12:35:27;2.42;;;2.03;;
32214;SDS011;18708;53.124;23.190;2023-05-24T12:37:57;5.40;;;2.13;;
32214;SDS011;18708;53.124;23.190;2023-05-24T12:40:25;3.72;;;2.42;;
32214;SDS011;18708;53.124;23.190;2023-05-24T12:42:57;2.47;;;2.15;;
32214;SDS011;18708;53.124;23.190;2023-05-24T12:45:24;3.00;;;2.30;;
32214;SDS011;18708;53.124;23.190;2023-05-24T12:47:52;5.20;;;1.90;;
32214;SDS011;18708;53.124;23.190;2023-05-24T12:50:20;3.97;;;1.98;;
32214;SDS011;18708;53.124;23.190;2023-05-24T12:52:49;3.90;;;2.20;;
32214;SDS011;18708;53.124;23.190;2023-05-24T12:55:24;4.78;;;2.25;;
32214;SDS011;18708;53.124;23.190;2023-05-24T12:57:52;3.67;;;2.17;;
32214;SDS011;18708;53.124;23.190;2023-05-24T13:00:21;1.83;;;1.70;;
32214;SDS011;18708;53.124;23.190;2023-05-24T13:02:48;2.83;;;2.50;;
32214;SDS011;18708;53.124;23.190;2023-05-24T13:05:17;3.83;;;2.63;;
32214;SDS011;18708;53.124;23.190;2023-05-24T13:07:43;5.25;;;2.38;;
32214;SDS011;18708;53.124;23.190;2023-05-24T13:10:09;5.20;;;2.03;;
32214;SDS011;18708;53.124;23.190;2023-05-24T13:12:36;3.50;;;2.40;;
32214;SDS011;18708;53.124;23.190;2023-05-24T13:15:01;5.85;;;2.65;;
32214;SDS011;18708;53.124;23.190;2023-05-24T13:17:28;2.30;;;2.10;;
32214;SDS011;18708;53.124;23.190;2023-05-24T13:19:53;3.35;;;2.50;;
32214;SDS011;18708;53.124;23.190;2023-05-24T13:22:21;3.28;;;2.60;;
32214;SDS011;18708;53.124;23.190;2023-05-24T13:24:47;1.98;;;1.88;;
32214;SDS011;18708;53.124;23.190;2023-05-24T13:27:12;2.58;;;2.00;;
32214;SDS011;18708;53.124;23.190;2023-05-24T13:29:38;3.75;;;2.55;;
32214;SDS011;18708;53.124;23.190;2023-05-24T13:32:04;5.20;;;2.70;;
32214;SDS011;18708;53.124;23.190;2023-05-24T13:34:30;4.38;;;2.33;;
32214;SDS011;18708;53.124;23.190;2023-05-24T13:36:57;3.05;;;2.35;;
32214;SDS011;18708;53.124;23.190;2023-05-24T13:39:24;3.20;;;2.30;;
32214;SDS011;18708;53.124;23.190;2023-05-24T13:41:51;3.00;;;2.70;;
32214;SDS011;18708;53.124;23.190;2023-05-24T13:44:16;3.95;;;2.63;;
32214;SDS011;18708;53.124;23.190;2023-05-24T13:46:42;7.95;;;2.35;;
32214;SDS011;18708;53.124;23.190;2023-05-24T13:49:08;4.93;;;2.67;;
32214;SDS011;18708;53.124;23.190;2023-05-24T13:51:35;3.20;;;2.47;;
32214;SDS011;18708;53.124;23.190;2023-05-24T13:54:01;2.92;;;2.17;;
32214;SDS011;18708;53.124;23.190;2023-05-24T13:56:31;6.15;;;2.55;;
32214;SDS011;18708;53.124;23.190;2023-05-24T13:58:58;7.00;;;2.83;;
32214;SDS011;18708;53.124;23.190;2023-05-24T14:01:25;4.40;;;2.60;;
32214;SDS011;18708;53.124;23.190;2023-05-24T14:03:50;4.30;;;2.20;;
32214;SDS011;18708;53.124;23.190;2023-05-24T14:06:16;4.20;;;2.25;;
32214;SDS011;18708;53.124;23.190;2023-05-24T14:08:44;3.17;;;2.28;;
32214;SDS011;18708;53.124;23.190;2023-05-24T14:11:12;3.80;;;2.25;;
32214;SDS011;18708;53.124;23.190;2023-05-24T14:13:41;3.92;;;2.58;;
32214;SDS011;18708;53.124;23.190;2023-05-24T14:16:07;3.50;;;2.35;;
32214;SDS011;18708;53.124;23.190;2023-05-24T14:18:33;6.35;;;2.30;;
32214;SDS011;18708;53.124;23.190;2023-05-24T14:20:59;3.58;;;2.33;;
32214;SDS011;18708;53.124;23.190;2023-05-24T14:23:25;4.03;;;2.38;;
32214;SDS011;18708;53.124;23.190;2023-05-24T14:25:51;2.95;;;2.10;;
32214;SDS011;18708;53.124;23.190;2023-05-24T14:28:17;4.93;;;2.45;;
32214;SDS011;18708;53.124;23.190;2023-05-24T14:30:43;4.53;;;3.08;;
32214;SDS011;18708;53.124;23.190;2023-05-24T14:33:09;3.78;;;2.40;;
32214;SDS011;18708;53.124;23.190;2023-05-24T14:35:37;5.88;;;2.40;;
32214;SDS011;18708;53.124;23.190;2023-05-24T14:38:07;6.38;;;2.75;;
32214;SDS011;18708;53.124;23.190;2023-05-24T14:40:34;6.65;;;2.65;;
32214;SDS011;18708;53.124;23.190;2023-05-24T14:43:05;4.97;;;2.47;;
32214;SDS011;18708;53.124;23.190;2023-05-24T14:45:31;3.40;;;2.70;;
32214;SDS011;18708;53.124;23.190;2023-05-24T14:47:57;5.78;;;2.72;;
32214;SDS011;18708;53.124;23.190;2023-05-24T14:50:24;4.22;;;2.53;;
32214;SDS011;18708;53.124;23.190;2023-05-24T14:52:50;4.57;;;2.50;;
32214;SDS011;18708;53.124;23.190;2023-05-24T14:55:16;9.40;;;2.70;;
32214;SDS011;18708;53.124;23.190;2023-05-24T14:57:42;2.83;;;2.20;;
32214;SDS011;18708;53.124;23.190;2023-05-24T15:00:08;6.20;;;2.92;;
32214;SDS011;18708;53.124;23.190;2023-05-24T15:02:34;3.22;;;2.22;;
32214;SDS011;18708;53.124;23.190;2023-05-24T15:05:01;4.40;;;2.60;;